Time;durP1;ratioP1;P1;durP2;ratioP2;P2;SDS_P1;SDS_P2;PMS_P1;PMS_P2;Temp;Humidity;BMP_temperature;BMP_pressure;BME280_temperature;BME280_humidity;BME280_pressure;Samples;Min_cycle;Max_cycle;Signal;HPM_P1;HPM_P2
2022/04/13 00:02:09;;;;;;;20.67;10.63;;;;;;;;;;5017386;28;20275;-58
2022/04/13 00:04:36;;;;;;;33.73;13.67;;;;;;;;;;5017346;28;20293;-59
2022/04/13 00:07:03;;;;;;;24.37;11.37;;;;;;;;;;5017046;28;20228;-58
2022/04/13 00:09:30;;;;;;;32.17;14.93;;;;;;;;;;5017345;28;20189;-57
2022/04/13 00:11:59;;;;;;;40.07;15.93;;;;;;;;;;5016949;28;20537;-57
2022/04/13 00:14:26;;;;;;;32.97;14.43;;;;;;;;;;5017568;28;20221;-58
2022/04/13 00:16:54;;;;;;;43.60;14.60;;;;;;;;;;5016758;28;20640;-57
2022/04/13 00:19:22;;;;;;;24.13;11.87;;;;;;;;;;5016680;28;20229;-57
2022/04/13 00:21:49;;;;;;;23.23;11.30;;;;;;;;;;5016997;28;20536;-55
2022/04/13 00:24:16;;;;;;;61.50;21.13;;;;;;;;;;5015470;28;20292;-57
2022/04/13 00:26:43;;;;;;;25.27;12.47;;;;;;;;;;5016865;28;20198;-58
2022/04/13 00:29:10;;;;;;;23.17;11.30;;;;;;;;;;5016141;28;20236;-58
2022/04/13 00:31:37;;;;;;;19.13;10.50;;;;;;;;;;5016422;28;20217;-58
2022/04/13 00:34:05;;;;;;;50.00;15.13;;;;;;;;;;5017093;28;20232;-57
2022/04/13 00:36:32;;;;;;;37.97;14.07;;;;;;;;;;5016423;28;20263;-58
2022/04/13 00:38:59;;;;;;;39.33;15.07;;;;;;;;;;5016477;28;20225;-57
2022/04/13 00:41:27;;;;;;;51.47;18.47;;;;;;;;;;5016676;28;20599;-59
2022/04/13 00:44:08;;;;;;;59.70;21.60;;;;;;;;;;5016743;28;20209;-58
2022/04/13 00:46:36;;;;;;;50.50;18.20;;;;;;;;;;5016490;28;20281;-58
2022/04/13 00:49:05;;;;;;;56.87;23.27;;;;;;;;;;5016197;28;20221;-58
2022/04/13 00:51:32;;;;;;;181.93;54.00;;;;;;;;;;5016065;28;20656;-59
2022/04/13 00:54:01;;;;;;;161.80;45.07;;;;;;;;;;5016298;28;20198;-58
2022/04/13 00:56:29;;;;;;;88.07;27.70;;;;;;;;;;5031390;28;20201;-58
2022/04/13 00:59:02;;;;;;;39.73;15.77;;;;;;;;;;5016193;28;20564;-58
2022/04/13 01:01:29;;;;;;;27.30;13.13;;;;;;;;;;5015582;28;20236;-58
2022/04/13 01:03:57;;;;;;;28.73;13.27;;;;;;;;;;5016647;28;20236;-58
2022/04/13 01:06:25;;;;;;;30.03;14.37;;;;;;;;;;5015479;28;20205;-58
2022/04/13 01:08:52;;;;;;;62.23;21.13;;;;;;;;;;5015850;28;20281;-58
2022/04/13 01:11:19;;;;;;;40.13;16.37;;;;;;;;;;5014863;28;20206;-58
2022/04/13 01:13:47;;;;;;;45.93;19.87;;;;;;;;;;5031144;28;20340;-58
2022/04/13 01:16:16;;;;;;;42.57;18.67;;;;;;;;;;5015991;28;20225;-57
2022/04/13 01:18:44;;;;;;;36.93;17.00;;;;;;;;;;5014935;28;20244;-58
2022/04/13 01:21:13;;;;;;;41.63;16.73;;;;;;;;;;5014611;28;20317;-58
2022/04/13 01:23:40;;;;;;;34.33;15.87;;;;;;;;;;5014597;28;20236;-59
2022/04/13 01:26:11;;;;;;;57.87;21.23;;;;;;;;;;5014933;28;20272;-58
2022/04/13 01:28:38;;;;;;;47.37;20.00;;;;;;;;;;5016338;28;20267;-58
2022/04/13 01:31:05;;;;;;;49.13;22.93;;;;;;;;;;5015559;28;20612;-58
2022/04/13 01:33:32;;;;;;;54.47;23.63;;;;;;;;;;5015695;28;20215;-58
2022/04/13 01:36:02;;;;;;;75.20;26.87;;;;;;;;;;5014236;28;20628;-58
2022/04/13 01:38:31;;;;;;;46.10;19.87;;;;;;;;;;5015341;28;20284;-58
2022/04/13 01:41:00;;;;;;;195.63;47.77;;;;;;;;;;5015301;28;20260;-56
2022/04/13 01:43:30;;;;;;;211.77;52.40;;;;;;;;;;5015503;28;20621;-55
2022/04/13 01:45:58;;;;;;;105.20;30.03;;;;;;;;;;5015513;28;20206;-52
2022/04/13 01:48:25;;;;;;;86.40;28.40;;;;;;;;;;5015424;28;20220;-55
2022/04/13 01:50:52;;;;;;;24.33;13.90;;;;;;;;;;5015398;28;20288;-53
2022/04/13 01:53:20;;;;;;;23.83;14.67;;;;;;;;;;5015196;28;20228;-51
2022/04/13 01:55:47;;;;;;;28.60;14.33;;;;;;;;;;5015194;28;20511;-50
2022/04/13 01:58:14;;;;;;;33.00;16.07;;;;;;;;;;5015063;28;20236;-55
2022/04/13 02:00:41;;;;;;;30.53;15.40;;;;;;;;;;5015219;28;20320;-51
2022/04/13 02:03:09;;;;;;;56.90;21.00;;;;;;;;;;5015315;28;20220;-54
2022/04/13 02:05:36;;;;;;;40.93;18.13;;;;;;;;;;5014997;28;20229;-53
2022/04/13 02:08:03;;;;;;;76.50;26.97;;;;;;;;;;5014186;28;20627;-53
2022/04/13 02:10:30;;;;;;;53.17;20.37;;;;;;;;;;5015224;28;20216;-50
2022/04/13 02:12:57;;;;;;;92.30;35.57;;;;;;;;;;5015026;28;20205;-54
2022/04/13 02:15:25;;;;;;;68.27;26.70;;;;;;;;;;5014995;28;20240;-53
2022/04/13 02:17:52;;;;;;;203.67;50.80;;;;;;;;;;5015084;28;20504;-54
2022/04/13 02:20:19;;;;;;;229.27;57.43;;;;;;;;;;5015295;28;20259;-51
2022/04/13 02:22:47;;;;;;;299.47;73.57;;;;;;;;;;5014873;28;20242;-55
2022/04/13 02:25:14;;;;;;;284.97;71.80;;;;;;;;;;5015058;28;20205;-51
2022/04/13 02:27:42;;;;;;;184.33;50.53;;;;;;;;;;5015009;28;20678;-54
2022/04/13 02:30:09;;;;;;;149.50;42.70;;;;;;;;;;5014714;28;20229;-55
2022/04/13 02:32:40;;;;;;;131.80;38.50;;;;;;;;;;5014765;28;20336;-57
2022/04/13 02:35:07;;;;;;;449.53;147.63;;;;;;;;;;5014744;28;20263;-52
2022/04/13 02:37:35;;;;;;;417.30;148.87;;;;;;;;;;5014931;28;20225;-54
2022/04/13 02:40:02;;;;;;;210.77;74.90;;;;;;;;;;5014707;28;20644;-50
2022/04/13 02:42:33;;;;;;;136.63;49.27;;;;;;;;;;5014865;28;20209;-55
2022/04/13 02:45:02;;;;;;;144.07;43.80;;;;;;;;;;5014735;28;20295;-56
2022/04/13 02:47:33;;;;;;;104.07;32.20;;;;;;;;;;5015089;28;20229;-54
2022/04/13 02:50:01;;;;;;;64.97;25.07;;;;;;;;;;5019016;28;20204;-55
2022/04/13 02:52:29;;;;;;;83.63;28.47;;;;;;;;;;5018616;28;20198;-54
2022/04/13 02:54:56;;;;;;;113.73;34.67;;;;;;;;;;5018509;28;20656;-53
2022/04/13 02:57:24;;;;;;;126.00;35.93;;;;;;;;;;5018407;28;20216;-53
2022/04/13 02:59:51;;;;;;;54.30;23.37;;;;;;;;;;5018934;28;20292;-53
2022/04/13 03:02:19;;;;;;;45.23;21.57;;;;;;;;;;5018152;28;20644;-52
2022/04/13 03:04:47;;;;;;;41.07;20.67;;;;;;;;;;5018535;28;20539;-53
2022/04/13 03:07:16;;;;;;;43.10;21.27;;;;;;;;;;5017741;28;20205;-53
2022/04/13 03:09:44;;;;;;;41.57;21.63;;;;;;;;;;5017884;28;20620;-52
2022/04/13 03:12:11;;;;;;;47.07;22.47;;;;;;;;;;5017791;28;20217;-52
2022/04/13 03:14:43;;;;;;;53.37;24.67;;;;;;;;;;5017942;28;20233;-51
2022/04/13 03:17:10;;;;;;;57.57;28.80;;;;;;;;;;5017743;28;20193;-50
2022/04/13 03:19:37;;;;;;;61.43;28.73;;;;;;;;;;5017795;28;20288;-54
2022/04/13 03:22:04;;;;;;;76.30;29.90;;;;;;;;;;5017568;28;20622;-54
2022/04/13 03:24:33;;;;;;;75.80;30.00;;;;;;;;;;5017530;28;20546;-54
2022/04/13 03:27:01;;;;;;;68.63;29.53;;;;;;;;;;5017410;28;20213;-56
2022/04/13 03:29:28;;;;;;;90.27;34.27;;;;;;;;;;5017630;28;20221;-53
2022/04/13 03:31:55;;;;;;;56.30;26.27;;;;;;;;;;5017528;28;20209;-53
2022/04/13 03:34:22;;;;;;;65.67;27.77;;;;;;;;;;5017442;28;20296;-52
2022/04/13 03:36:50;;;;;;;122.70;44.03;;;;;;;;;;5017614;28;20209;-55
2022/04/13 03:39:17;;;;;;;181.10;56.63;;;;;;;;;;5017231;28;20267;-51
2022/04/13 03:41:44;;;;;;;100.17;35.47;;;;;;;;;;5017452;28;20260;-55
2022/04/13 03:44:12;;;;;;;64.23;28.77;;;;;;;;;;5017201;28;20642;-54
2022/04/13 03:46:39;;;;;;;65.90;28.97;;;;;;;;;;5017154;28;20272;-52
2022/04/13 03:49:07;;;;;;;97.10;35.17;;;;;;;;;;5017171;28;20232;-50
2022/04/13 03:51:34;;;;;;;90.50;34.97;;;;;;;;;;5013523;28;20218;-58
2022/04/13 03:54:02;;;;;;;110.27;39.13;;;;;;;;;;5015770;28;20664;-49
2022/04/13 03:56:29;;;;;;;57.97;27.70;;;;;;;;;;5016551;28;20229;-50
2022/04/13 03:58:57;;;;;;;63.30;28.47;;;;;;;;;;5026141;28;20316;-58
2022/04/13 04:01:25;;;;;;;52.53;25.37;;;;;;;;;;5022563;28;20228;-55
2022/04/13 04:03:53;;;;;;;65.70;28.30;;;;;;;;;;5031982;28;20547;-57
2022/04/13 04:06:21;;;;;;;51.40;26.33;;;;;;;;;;5025338;28;20307;-59
2022/04/13 04:08:49;;;;;;;66.77;29.20;;;;;;;;;;5014502;28;20240;-55
2022/04/13 04:11:16;;;;;;;61.33;29.03;;;;;;;;;;5014697;28;20232;-50
2022/04/13 04:13:43;;;;;;;55.83;27.97;;;;;;;;;;5015103;28;20264;-59
2022/04/13 04:16:10;;;;;;;125.13;63.30;;;;;;;;;;5014701;28;20229;-54
2022/04/13 04:18:38;;;;;;;330.67;133.13;;;;;;;;;;5014325;28;20249;-58
2022/04/13 04:21:05;;;;;;;143.27;59.33;;;;;;;;;;5014807;28;20328;-58
2022/04/13 04:23:32;;;;;;;119.10;46.13;;;;;;;;;;5013555;28;20229;-64
2022/04/13 04:25:59;;;;;;;84.20;33.80;;;;;;;;;;5012673;28;20217;-61
2022/04/13 04:28:26;;;;;;;50.80;26.60;;;;;;;;;;5014841;28;20257;-60
2022/04/13 04:30:53;;;;;;;48.43;25.87;;;;;;;;;;5014474;28;20284;-60
2022/04/13 04:33:22;;;;;;;45.10;23.80;;;;;;;;;;5014522;28;20613;-59
2022/04/13 04:35:51;;;;;;;41.70;23.20;;;;;;;;;;5009571;28;20276;-59
2022/04/13 04:38:19;;;;;;;40.63;20.90;;;;;;;;;;5016473;28;20573;-59
2022/04/13 04:40:46;;;;;;;41.50;23.07;;;;;;;;;;5015489;28;20760;-57
2022/04/13 04:43:13;;;;;;;42.80;22.43;;;;;;;;;;5014308;28;20328;-59
2022/04/13 04:45:40;;;;;;;39.70;22.87;;;;;;;;;;5014122;28;20225;-60
2022/04/13 04:48:08;;;;;;;47.30;23.83;;;;;;;;;;5014050;28;20671;-59
2022/04/13 04:50:35;;;;;;;45.20;23.13;;;;;;;;;;5014905;28;20319;-61
2022/04/13 04:53:02;;;;;;;66.27;30.27;;;;;;;;;;5014935;28;20229;-60
2022/04/13 04:55:31;;;;;;;57.07;27.17;;;;;;;;;;5015667;28;20217;-58
2022/04/13 04:57:59;;;;;;;49.50;24.90;;;;;;;;;;5014814;28;20310;-61
2022/04/13 05:00:26;;;;;;;54.20;26.60;;;;;;;;;;5014053;28;20225;-58
2022/04/13 05:02:53;;;;;;;43.17;23.60;;;;;;;;;;5013971;28;20252;-59
2022/04/13 05:05:21;;;;;;;45.30;25.43;;;;;;;;;;5008797;28;20260;-58
2022/04/13 05:07:48;;;;;;;48.93;25.17;;;;;;;;;;5011317;28;20331;-59
2022/04/13 05:10:15;;;;;;;44.30;25.87;;;;;;;;;;5012606;28;20213;-54
2022/04/13 05:12:50;;;;;;;45.50;24.67;;;;;;;;;;5011457;28;20256;-58
2022/04/13 05:15:17;;;;;;;46.00;25.53;;;;;;;;;;5013622;28;20568;-59
2022/04/13 05:17:45;;;;;;;45.57;27.33;;;;;;;;;;5013828;28;20272;-60
2022/04/13 05:20:12;;;;;;;44.47;24.47;;;;;;;;;;5013008;28;20217;-58
2022/04/13 05:22:39;;;;;;;41.17;23.60;;;;;;;;;;5012773;28;20256;-59
2022/04/13 05:25:11;;;;;;;46.23;24.57;;;;;;;;;;5013003;28;20592;-60
2022/04/13 05:27:39;;;;;;;48.20;25.37;;;;;;;;;;5013546;28;20225;-58
2022/04/13 05:30:07;;;;;;;40.77;24.93;;;;;;;;;;5013232;28;20217;-61
2022/04/13 05:32:49;;;;;;;47.20;25.50;;;;;;;;;;5013617;28;20332;-63
2022/04/13 05:35:17;;;;;;;50.83;28.83;;;;;;;;;;5014403;28;20225;-59
2022/04/13 05:37:45;;;;;;;54.57;28.97;;;;;;;;;;5014561;28;20324;-57
2022/04/13 05:40:12;;;;;;;54.90;30.13;;;;;;;;;;5013590;28;20225;-56
2022/04/13 05:42:39;;;;;;;57.90;31.50;;;;;;;;;;4994742;28;20234;-60
2022/04/13 05:45:07;;;;;;;52.27;30.47;;;;;;;;;;4997966;28;20264;-56
2022/04/13 05:47:35;;;;;;;46.53;30.00;;;;;;;;;;5014517;28;20680;-61
2022/04/13 05:50:03;;;;;;;63.43;34.03;;;;;;;;;;5014508;28;20260;-59
2022/04/13 05:52:30;;;;;;;60.57;35.47;;;;;;;;;;5014041;28;20249;-60
2022/04/13 05:54:57;;;;;;;42.97;26.47;;;;;;;;;;5013836;28;20229;-59
2022/04/13 05:57:24;;;;;;;45.45;24.02;;;;;;;;;;5014541;28;20275;-59
2022/04/13 05:59:52;;;;;;;43.40;24.65;;;;;;;;;;5014119;28;20261;-59
2022/04/13 06:02:19;;;;;;;41.05;21.80;;;;;;;;;;5014620;28;20247;-59
2022/04/13 06:04:47;;;;;;;39.88;23.75;;;;;;;;;;5013908;28;20229;-60
2022/04/13 06:07:14;;;;;;;42.28;23.45;;;;;;;;;;5014105;28;20305;-59
2022/04/13 06:09:41;;;;;;;40.35;23.67;;;;;;;;;;4975054;28;20230;-60
2022/04/13 06:12:08;;;;;;;36.85;22.40;;;;;;;;;;4975367;28;20595;-59
2022/04/13 06:14:36;;;;;;;36.92;22.27;;;;;;;;;;4975052;28;20230;-60
2022/04/13 06:17:03;;;;;;;42.78;24.15;;;;;;;;;;4975123;28;20270;-60
2022/04/13 06:19:31;;;;;;;43.72;23.55;;;;;;;;;;4975173;28;20223;-60
2022/04/13 06:21:58;;;;;;;41.00;23.85;;;;;;;;;;4975869;28;20334;-64
2022/04/13 06:24:25;;;;;;;43.08;23.60;;;;;;;;;;4979472;28;20633;-59
2022/04/13 06:26:52;;;;;;;46.20;25.17;;;;;;;;;;4978840;28;20238;-60
2022/04/13 06:29:19;;;;;;;34.97;21.60;;;;;;;;;;4994446;28;20280;-60
2022/04/13 06:31:46;;;;;;;40.67;24.02;;;;;;;;;;4978733;28;20230;-64
2022/04/13 06:34:14;;;;;;;36.80;20.83;;;;;;;;;;4979006;28;20222;-59
2022/04/13 06:36:41;;;;;;;42.15;20.52;;;;;;;;;;4978338;28;20258;-60
2022/04/13 06:39:09;;;;;;;40.25;18.27;;;;;;;;;;4979090;28;20238;-60
2022/04/13 06:41:36;;;;;;;26.40;14.98;;;;;;;;;;4978835;28;20227;-61
2022/04/13 06:44:05;;;;;;;28.42;15.93;;;;;;;;;;4977979;28;20223;-60
2022/04/13 06:46:36;;;;;;;29.58;15.10;;;;;;;;;;4978891;28;20635;-59
2022/04/13 06:49:04;;;;;;;26.90;14.27;;;;;;;;;;5008291;28;20595;-60
2022/04/13 06:51:31;;;;;;;27.35;14.57;;;;;;;;;;4978333;28;20329;-59
2022/04/13 06:53:58;;;;;;;25.63;14.55;;;;;;;;;;4978325;28;20222;-61
2022/04/13 06:56:25;;;;;;;28.42;13.27;;;;;;;;;;4993796;28;20273;-61
2022/04/13 06:58:52;;;;;;;25.10;13.02;;;;;;;;;;4978341;28;20682;-59
2022/04/13 07:01:19;;;;;;;24.30;13.50;;;;;;;;;;4978136;28;20535;-60
2022/04/13 07:03:46;;;;;;;24.27;12.32;;;;;;;;;;4978532;28;20309;-58
2022/04/13 07:06:14;;;;;;;21.48;11.75;;;;;;;;;;4978128;28;20347;-59
2022/04/13 07:09:01;;;;;;;23.15;13.02;;;;;;;;;;4987236;28;20233;-63
2022/04/13 07:11:28;;;;;;;26.15;12.05;;;;;;;;;;4997611;28;20229;-64
2022/04/13 07:13:56;;;;;;;22.05;11.80;;;;;;;;;;4997528;28;20229;-67
2022/04/13 07:16:23;;;;;;;19.42;11.23;;;;;;;;;;4997582;28;20232;-70
2022/04/13 07:18:50;;;;;;;20.08;10.25;;;;;;;;;;4997506;28;20684;-64
2022/04/13 07:21:17;;;;;;;19.30;10.57;;;;;;;;;;4997113;28;20222;-68
2022/04/13 07:23:51;;;;;;;20.45;10.05;;;;;;;;;;4997660;28;20261;-66
2022/04/13 07:26:18;;;;;;;24.02;9.90;;;;;;;;;;4997301;28;20312;-66
2022/04/13 07:28:46;;;;;;;17.98;9.05;;;;;;;;;;4997594;28;20222;-65
2022/04/13 07:31:13;;;;;;;16.65;9.10;;;;;;;;;;4997620;28;20253;-66
2022/04/13 07:33:40;;;;;;;17.75;7.97;;;;;;;;;;4996617;28;20588;-67
2022/04/13 07:36:07;;;;;;;15.90;8.30;;;;;;;;;;4997079;28;20221;-66
2022/04/13 07:38:34;;;;;;;14.77;7.47;;;;;;;;;;5029771;28;20255;-62
2022/04/13 07:41:02;;;;;;;19.73;6.55;;;;;;;;;;5036522;28;20316;-65
2022/04/13 07:43:29;;;;;;;12.57;7.05;;;;;;;;;;5036668;28;20729;-64
2022/04/13 07:45:56;;;;;;;16.08;6.63;;;;;;;;;;5036253;28;20694;-65
2022/04/13 07:48:24;;;;;;;11.55;6.72;;;;;;;;;;5036415;28;20713;-64
2022/04/13 07:50:51;;;;;;;11.77;5.82;;;;;;;;;;5035842;28;20294;-64
2022/04/13 07:53:18;;;;;;;7.90;4.90;;;;;;;;;;5036323;28;20612;-65
2022/04/13 07:55:45;;;;;;;10.23;5.68;;;;;;;;;;5036068;28;20303;-64
2022/04/13 07:58:12;;;;;;;16.40;5.60;;;;;;;;;;5036532;28;20216;-65
2022/04/13 08:00:39;;;;;;;13.95;6.65;;;;;;;;;;5036240;28;20271;-58
2022/04/13 08:03:06;;;;;;;10.75;5.55;;;;;;;;;;5036162;28;20243;-65
2022/04/13 08:05:54;;;;;;;11.65;4.95;;;;;;;;;;5035366;28;20229;-64
2022/04/13 08:08:21;;;;;;;10.40;5.30;;;;;;;;;;5035912;28;20245;-69
2022/04/13 08:10:48;;;;;;;16.50;5.70;;;;;;;;;;5035800;28;20229;-66
2022/04/13 08:13:15;;;;;;;10.50;5.60;;;;;;;;;;5036016;28;20691;-64
2022/04/13 08:16:02;;;;;;;12.38;4.57;;;;;;;;;;5035981;28;20585;-64
2022/04/13 08:18:29;;;;;;;9.38;4.63;;;;;;;;;;5035846;28;20726;-67
2022/04/13 08:20:57;;;;;;;12.20;5.18;;;;;;;;;;5035334;28;20676;-68
2022/04/13 08:23:24;;;;;;;12.80;4.38;;;;;;;;;;5035689;28;20640;-69
2022/04/13 08:25:51;;;;;;;11.45;4.50;;;;;;;;;;5035552;28;20307;-75
2022/04/13 08:28:18;;;;;;;8.70;4.07;;;;;;;;;;5035737;28;20741;-66
2022/04/13 08:30:45;;;;;;;10.95;4.05;;;;;;;;;;5035380;28;20221;-69
2022/04/13 08:33:12;;;;;;;13.27;4.47;;;;;;;;;;5035586;28;20260;-69
2022/04/13 08:35:40;;;;;;;10.02;4.40;;;;;;;;;;5034971;28;20702;-66
2022/04/13 08:38:07;;;;;;;10.25;3.72;;;;;;;;;;5035426;28;20228;-69
2022/04/13 08:40:39;;;;;;;8.25;3.67;;;;;;;;;;5029316;28;20265;-66
2022/04/13 08:43:09;;;;;;;8.25;3.25;;;;;;;;;;5031135;28;20252;-69
2022/04/13 08:46:08;;;;;;;8.18;3.28;;;;;;;;;;5014882;28;20625;-68
2022/04/13 08:48:38;;;;;;;8.88;2.40;;;;;;;;;;5034448;28;20603;-70
2022/04/13 08:51:06;;;;;;;5.03;2.75;;;;;;;;;;5034409;28;20270;-68
2022/04/13 08:53:36;;;;;;;8.82;3.20;;;;;;;;;;5034322;28;20208;-70
2022/04/13 08:56:03;;;;;;;8.55;3.53;;;;;;;;;;5034370;28;20639;-69
2022/04/13 08:58:32;;;;;;;6.55;3.20;;;;;;;;;;5034302;28;20201;-67
2022/04/13 09:01:03;;;;;;;11.63;3.35;;;;;;;;;;5034296;28;20262;-71
2022/04/13 09:03:38;;;;;;;6.68;2.85;;;;;;;;;;5034260;28;20617;-67
2022/04/13 09:06:06;;;;;;;6.22;3.33;;;;;;;;;;5034432;28;20602;-69
2022/04/13 09:08:42;;;;;;;9.75;3.28;;;;;;;;;;5033912;28;20260;-67
2022/04/13 09:11:10;;;;;;;7.43;3.40;;;;;;;;;;5034096;28;20204;-70
2022/04/13 09:13:38;;;;;;;7.78;3.22;;;;;;;;;;5034111;28;20705;-68
2022/04/13 09:16:05;;;;;;;8.48;3.50;;;;;;;;;;5033975;28;20201;-67
2022/04/13 09:18:33;;;;;;;7.10;2.80;;;;;;;;;;5033859;28;20674;-68
2022/04/13 09:21:01;;;;;;;4.57;2.58;;;;;;;;;;5033861;28;20205;-70
2022/04/13 09:23:29;;;;;;;10.95;3.10;;;;;;;;;;5030935;28;20510;-71
2022/04/13 09:25:58;;;;;;;8.30;2.45;;;;;;;;;;4997466;28;20289;-68
2022/04/13 09:28:26;;;;;;;10.10;2.50;;;;;;;;;;4996327;28;20267;-68
2022/04/13 09:30:54;;;;;;;6.22;2.72;;;;;;;;;;4995892;28;20234;-68
2022/04/13 09:33:23;;;;;;;5.57;2.28;;;;;;;;;;4995953;28;20229;-68
2022/04/13 09:35:58;;;;;;;8.05;2.33;;;;;;;;;;4996445;28;20236;-68
2022/04/13 09:38:27;;;;;;;6.22;2.58;;;;;;;;;;4995891;28;20222;-61
2022/04/13 09:41:06;;;;;;;8.60;2.88;;;;;;;;;;4996012;28;20214;-64
2022/04/13 09:43:33;;;;;;;5.85;2.15;;;;;;;;;;4995755;28;20254;-65
2022/04/13 09:46:04;;;;;;;6.45;1.95;;;;;;;;;;4995760;28;20206;-63
2022/04/13 09:48:33;;;;;;;5.30;2.55;;;;;;;;;;4996041;28;20205;-63
2022/04/13 09:51:00;;;;;;;5.72;2.20;;;;;;;;;;4995852;28;20206;-64
2022/04/13 09:53:28;;;;;;;9.10;2.50;;;;;;;;;;4995813;28;20264;-62
2022/04/13 09:55:59;;;;;;;5.20;2.28;;;;;;;;;;4995498;28;20636;-64
2022/04/13 09:58:29;;;;;;;6.53;2.60;;;;;;;;;;4995598;28;20206;-64
2022/04/13 10:01:00;;;;;;;8.00;2.38;;;;;;;;;;4995530;28;20217;-47
2022/04/13 10:03:28;;;;;;;9.52;2.60;;;;;;;;;;4995312;28;20246;-46
2022/04/13 10:05:58;;;;;;;5.15;2.60;;;;;;;;;;4995358;28;20206;-47
2022/04/13 10:08:30;;;;;;;5.47;2.25;;;;;;;;;;4995594;28;20287;-47
2022/04/13 10:10:59;;;;;;;7.78;2.47;;;;;;;;;;4995466;28;20206;-50
2022/04/13 10:13:35;;;;;;;6.70;2.47;;;;;;;;;;4995354;28;20541;-49
2022/04/13 10:16:09;;;;;;;4.53;1.80;;;;;;;;;;4995389;28;20206;-49
2022/04/13 10:19:01;;;;;;;7.55;2.45;;;;;;;;;;4995657;28;20573;-49
2022/04/13 10:21:40;;;;;;;6.10;2.30;;;;;;;;;;4995192;28;20284;-46
2022/04/13 10:24:10;;;;;;;12.05;2.90;;;;;;;;;;4995710;28;20218;-47
2022/04/13 10:26:39;;;;;;;6.05;2.10;;;;;;;;;;4995473;28;20237;-46
2022/04/13 10:29:17;;;;;;;5.18;2.47;;;;;;;;;;4995384;28;20292;-46
2022/04/13 10:32:12;;;;;;;9.52;2.75;;;;;;;;;;4995402;28;20194;-48
2022/04/13 10:34:48;;;;;;;4.35;2.50;;;;;;;;;;4995932;28;20517;-46
2022/04/13 10:37:18;;;;;;;9.25;2.65;;;;;;;;;;4995338;28;20240;-48
2022/04/13 10:39:47;;;;;;;5.43;2.53;;;;;;;;;;4995086;28;20210;-47
2022/04/13 10:42:16;;;;;;;5.20;2.67;;;;;;;;;;4995149;28;20230;-46
2022/04/13 10:44:53;;;;;;;8.10;3.03;;;;;;;;;;4995265;28;20240;-47
2022/04/13 10:47:36;;;;;;;7.72;2.70;;;;;;;;;;4995628;28;20582;-49
2022/04/13 10:50:04;;;;;;;9.52;2.67;;;;;;;;;;4995141;28;20205;-47
2022/04/13 10:52:42;;;;;;;11.10;2.83;;;;;;;;;;5010289;28;20230;-50
2022/04/13 10:55:11;;;;;;;6.47;2.90;;;;;;;;;;4994975;28;20213;-49
2022/04/13 10:57:46;;;;;;;7.75;3.15;;;;;;;;;;4994927;28;20230;-47
2022/04/13 11:00:16;;;;;;;7.15;3.08;;;;;;;;;;4995214;28;20210;-46
2022/04/13 11:02:52;;;;;;;7.82;2.67;;;;;;;;;;4995313;28;20309;-46
2022/04/13 11:05:21;;;;;;;9.95;3.15;;;;;;;;;;5002631;28;20209;-49
2022/04/13 11:07:57;;;;;;;7.07;3.15;;;;;;;;;;5015232;28;20548;-46
2022/04/13 11:10:24;;;;;;;7.20;3.00;;;;;;;;;;5033677;28;20204;-48
2022/04/13 11:12:52;;;;;;;9.15;3.13;;;;;;;;;;5016845;28;20244;-49
2022/04/13 11:15:40;;;;;;;5.03;2.88;;;;;;;;;;5033547;28;20528;-50
2022/04/13 11:18:18;;;;;;;5.75;2.90;;;;;;;;;;5018188;28;20591;-52
2022/04/13 11:21:05;;;;;;;7.10;3.17;;;;;;;;;;5018179;28;20519;-48
2022/04/13 11:23:49;;;;;;;10.02;3.45;;;;;;;;;;5018130;28;20245;-49
2022/04/13 11:26:49;;;;;;;8.63;3.05;;;;;;;;;;5017994;28;20194;-50
2022/04/13 11:29:21;;;;;;;7.88;3.50;;;;;;;;;;5029862;28;20244;-48
2022/04/13 11:32:00;;;;;;;8.15;3.65;;;;;;;;;;5033130;28;20189;-48
2022/04/13 11:34:36;;;;;;;5.43;3.00;;;;;;;;;;5017584;28;20221;-47
2022/04/13 11:37:14;;;;;;;9.55;3.40;;;;;;;;;;5018117;28;20215;-51
2022/04/13 11:39:48;;;;;;;8.00;3.60;;;;;;;;;;5018077;28;20209;-47
2022/04/13 11:42:21;;;;;;;8.02;3.10;;;;;;;;;;5017643;28;20217;-47
2022/04/13 11:44:51;;;;;;;9.30;3.58;;;;;;;;;;5020628;28;20682;-49
2022/04/13 11:47:19;;;;;;;9.40;3.55;;;;;;;;;;5019344;28;20247;-48
2022/04/13 11:50:13;;;;;;;8.18;3.38;;;;;;;;;;5015361;28;21044;-51
2022/04/13 11:52:48;;;;;;;8.30;3.67;;;;;;;;;;5017057;28;20229;-48
2022/04/13 11:55:16;;;;;;;11.60;4.47;;;;;;;;;;5012980;28;20194;-49
2022/04/13 11:58:05;;;;;;;9.88;4.30;;;;;;;;;;4997398;28;20233;-49
2022/04/13 12:00:42;;;;;;;65.55;5.10;;;;;;;;;;5000507;28;20209;-47
2022/04/13 12:03:10;;;;;;;6.65;3.90;;;;;;;;;;5015403;28;20205;-40
2022/04/13 12:05:39;;;;;;;11.55;4.60;;;;;;;;;;5015584;28;20201;-40
2022/04/13 12:08:17;;;;;;;6.57;3.78;;;;;;;;;;5015305;28;20256;-41
2022/04/13 12:10:50;;;;;;;9.75;3.60;;;;;;;;;;5015420;28;20605;-40
2022/04/13 12:13:17;;;;;;;7.93;4.45;;;;;;;;;;5013715;28;20194;-41
2022/04/13 12:15:45;;;;;;;8.98;3.97;;;;;;;;;;5015588;28;20232;-41
2022/04/13 12:18:13;;;;;;;10.00;3.83;;;;;;;;;;5012993;28;20201;-41
2022/04/13 12:20:41;;;;;;;8.10;3.95;;;;;;;;;;5015127;28;20228;-41
2022/04/13 12:23:20;;;;;;;11.38;4.28;;;;;;;;;;5015097;28;20225;-42
2022/04/13 12:25:50;;;;;;;7.78;3.30;;;;;;;;;;5015540;28;20185;-41
2022/04/13 12:28:19;;;;;;;6.50;3.33;;;;;;;;;;5015285;28;20289;-42
2022/04/13 12:31:06;;;;;;;6.10;2.97;;;;;;;;;;5016226;28;20206;-42
2022/04/13 12:33:34;;;;;;;8.02;3.55;;;;;;;;;;5011115;28;20263;-41
2022/04/13 12:36:14;;;;;;;7.22;3.97;;;;;;;;;;5014881;28;20252;-42
2022/04/13 12:38:43;;;;;;;7.88;3.28;;;;;;;;;;5015154;28;20630;-41
2022/04/13 12:41:17;;;;;;;10.10;4.13;;;;;;;;;;5015994;28;20320;-41
2022/04/13 12:43:50;;;;;;;9.68;3.83;;;;;;;;;;5015922;28;20538;-41
2022/04/13 12:46:19;;;;;;;6.18;3.70;;;;;;;;;;5014048;28;20252;-42
2022/04/13 12:48:49;;;;;;;7.15;3.80;;;;;;;;;;5015684;28;20414;-41
2022/04/13 12:51:16;;;;;;;10.52;3.83;;;;;;;;;;5012685;28;20221;-41
2022/04/13 12:53:55;;;;;;;10.93;3.97;;;;;;;;;;4974325;28;20348;-41
2022/04/13 12:56:27;;;;;;;7.50;3.72;;;;;;;;;;5013857;28;20224;-43
2022/04/13 12:58:55;;;;;;;10.18;3.88;;;;;;;;;;5008574;28;20308;-42
2022/04/13 13:01:35;;;;;;;9.00;3.58;;;;;;;;;;5013963;28;20236;-43
2022/04/13 13:04:05;;;;;;;6.55;3.33;;;;;;;;;;5013082;28;20754;-43
2022/04/13 13:06:33;;;;;;;5.78;2.90;;;;;;;;;;5013666;28;20240;-42
2022/04/13 13:09:06;;;;;;;8.23;3.25;;;;;;;;;;5014013;28;20244;-43
2022/04/13 13:11:36;;;;;;;8.30;3.22;;;;;;;;;;5011774;28;20244;-43
2022/04/13 13:14:03;;;;;;;5.93;2.65;;;;;;;;;;5013607;28;20229;-42
2022/04/13 13:16:40;;;;;;;7.78;3.42;;;;;;;;;;5010011;28;20223;-42
2022/04/13 13:19:08;;;;;;;7.15;3.30;;;;;;;;;;5012535;28;20594;-42
2022/04/13 13:21:36;;;;;;;8.05;3.00;;;;;;;;;;5012508;28;20311;-42
2022/04/13 13:24:03;;;;;;;8.18;3.17;;;;;;;;;;5034904;28;20323;-43
2022/04/13 13:26:30;;;;;;;10.60;3.40;;;;;;;;;;5014176;28;20256;-42
2022/04/13 13:29:00;;;;;;;13.05;3.00;;;;;;;;;;5014487;28;20213;-43
2022/04/13 13:31:27;;;;;;;5.70;2.88;;;;;;;;;;5012571;28;20730;-42
2022/04/13 13:33:54;;;;;;;6.55;2.92;;;;;;;;;;5014287;28;20249;-43
2022/04/13 13:36:21;;;;;;;8.07;2.85;;;;;;;;;;5013824;28;20217;-42
2022/04/13 13:38:48;;;;;;;8.13;2.95;;;;;;;;;;5014209;28;20245;-43
2022/04/13 13:41:16;;;;;;;8.40;2.92;;;;;;;;;;5014069;28;20249;-42
2022/04/13 13:43:43;;;;;;;11.23;3.10;;;;;;;;;;5014421;28;20229;-42
2022/04/13 13:46:15;;;;;;;9.27;3.20;;;;;;;;;;5013261;28;20321;-66
2022/04/13 13:48:43;;;;;;;7.45;2.85;;;;;;;;;;5009507;28;20300;-63
2022/04/13 13:51:10;;;;;;;4.70;2.13;;;;;;;;;;5012500;28;20217;-66
2022/04/13 13:53:38;;;;;;;6.63;3.08;;;;;;;;;;5012454;28;20308;-60
2022/04/13 13:56:06;;;;;;;13.40;3.22;;;;;;;;;;5012704;28;20585;-60
2022/04/13 13:58:34;;;;;;;5.47;3.05;;;;;;;;;;5013063;28;20283;-58
2022/04/13 14:01:02;;;;;;;6.10;2.60;;;;;;;;;;5010291;28;20312;-59
2022/04/13 14:03:29;;;;;;;11.45;2.90;;;;;;;;;;5012116;28;20291;-58
2022/04/13 14:05:57;;;;;;;7.45;3.05;;;;;;;;;;5012531;28;20614;-60
2022/04/13 14:08:24;;;;;;;7.68;2.90;;;;;;;;;;5012949;28;20614;-61
2022/04/13 14:10:52;;;;;;;6.45;2.60;;;;;;;;;;5013014;28;20229;-60
2022/04/13 14:13:19;;;;;;;5.13;2.60;;;;;;;;;;5012791;28;20679;-61
2022/04/13 14:15:46;;;;;;;6.35;2.55;;;;;;;;;;5013076;28;20288;-60
2022/04/13 14:18:13;;;;;;;6.97;2.90;;;;;;;;;;5014853;28;20221;-60
2022/04/13 14:20:41;;;;;;;9.48;2.75;;;;;;;;;;5033515;28;20666;-60
2022/04/13 14:23:08;;;;;;;7.10;3.08;;;;;;;;;;5033545;28;20261;-60
2022/04/13 14:25:36;;;;;;;5.57;2.70;;;;;;;;;;5033836;28;20220;-62
2022/04/13 14:28:03;;;;;;;6.03;2.92;;;;;;;;;;5032511;28;20239;-60
2022/04/13 14:30:30;;;;;;;8.85;3.08;;;;;;;;;;5032152;28;20255;-65
2022/04/13 14:32:58;;;;;;;5.60;2.33;;;;;;;;;;5033506;28;20236;-60
2022/04/13 14:35:26;;;;;;;6.32;2.28;;;;;;;;;;5033544;28;20228;-61
2022/04/13 14:37:56;;;;;;;7.38;2.60;;;;;;;;;;5033968;28;20252;-60
2022/04/13 14:40:24;;;;;;;5.60;2.60;;;;;;;;;;5048725;28;20718;-60